TimeEDT,TemperatureF,Dew PointF,Humidity,Sea Level PressureIn,VisibilityMPH,Wind Direction,Wind SpeedMPH,Gust SpeedMPH,PrecipitationIn,Events,Conditions,WindDirDegrees,DateUTC
12:53 AM,68.0,45.0,43,30.21,10.0,SSE,3.5,-,N/A,,Clear,150,2013-06-21 04:53:00
1:53 AM,66.9,46.0,47,30.21,10.0,SSE,4.6,-,N/A,,Scattered Clouds,160,2013-06-21 05:53:00
2:53 AM,66.0,46.9,50,30.21,10.0,SSE,8.1,-,N/A,,Clear,160,2013-06-21 06:53:00
3:53 AM,64.9,46.9,52,30.20,10.0,SSE,8.1,-,N/A,,Clear,160,2013-06-21 07:53:00
4:53 AM,64.0,46.9,54,30.21,10.0,SSE,11.5,-,N/A,,Clear,160,2013-06-21 08:53:00
5:53 AM,63.0,48.0,58,30.20,10.0,SSE,6.9,-,N/A,,Clear,150,2013-06-21 09:53:00
6:53 AM,63.0,50.0,63,30.21,10.0,SSE,9.2,-,N/A,,Clear,150,2013-06-21 10:53:00
7:53 AM,68.0,52.0,56,30.22,10.0,SSE,8.1,-,N/A,,Mostly Cloudy,150,2013-06-21 11:53:00
8:53 AM,72.0,54.0,53,30.22,10.0,SSE,12.7,-,N/A,,Clear,150,2013-06-21 12:53:00
9:53 AM,75.0,54.0,48,30.23,8.0,South,6.9,-,N/A,,Partly Cloudy,170,2013-06-21 13:53:00
10:53 AM,80.1,57.0,45,30.22,10.0,South,5.8,-,N/A,,Mostly Cloudy,180,2013-06-21 14:53:00
11:53 AM,82.0,57.9,44,30.20,10.0,South,5.8,-,N/A,,Clear,170,2013-06-21 15:53:00
12:53 PM,81.0,63.0,54,30.22,10.0,WNW,8.1,-,N/A,,Scattered Clouds,300,2013-06-21 16:53:00
1:53 PM,84.0,61.0,46,30.21,10.0,NNW,4.6,-,N/A,,Scattered Clouds,330,2013-06-21 17:53:00
2:53 PM,84.0,63.0,49,30.19,10.0,NE,6.9,-,N/A,,Scattered Clouds,40,2013-06-21 18:53:00
3:53 PM,78.1,66.9,68,30.17,10.0,NE,8.1,-,N/A,,Clear,40,2013-06-21 19:53:00
4:53 PM,78.1,64.0,62,30.16,10.0,NE,8.1,-,N/A,,Scattered Clouds,50,2013-06-21 20:53:00
5:53 PM,77.0,64.0,64,30.16,10.0,NE,5.8,-,N/A,,Clear,40,2013-06-21 21:53:00
6:53 PM,75.9,62.1,62,30.14,10.0,NE,8.1,-,N/A,,Clear,50,2013-06-21 22:53:00
7:53 PM,82.0,57.9,44,30.12,10.0,SSW,11.5,-,N/A,,Clear,200,2013-06-21 23:53:00
8:53 PM,80.1,57.0,45,30.12,10.0,SSW,6.9,-,N/A,,Clear,200,2013-06-22 00:53:00
9:53 PM,79.0,57.0,47,30.12,10.0,South,8.1,-,N/A,,Clear,170,2013-06-22 01:53:00
10:53 PM,78.1,57.0,48,30.12,10.0,SSE,5.8,-,N/A,,Clear,160,2013-06-22 02:53:00
11:53 PM,75.0,57.9,55,30.12,10.0,SSE,5.8,-,N/A,,Clear,160,2013-06-22 03:53:00